Time;durP1;ratioP1;P1;durP2;ratioP2;P2;SDS_P1;SDS_P2;PMS_P1;PMS_P2;Temp;Humidity;BMP_temperature;BMP_pressure;BME280_temperature;BME280_humidity;BME280_pressure;Samples;Min_cycle;Max_cycle;Signal;HPM_P1;HPM_P2
2021/11/24 00:01:07;;;;;;;12.32;8.98;;;25.70;99.90;;;;;;5072419;28;20016;-67
2021/11/24 00:03:35;;;;;;;15.15;9.02;;;25.70;99.90;;;;;;5088575;28;20020;-71
2021/11/24 00:06:02;;;;;;;15.27;10.65;;;25.70;99.90;;;;;;5090372;28;20024;-70
2021/11/24 00:08:29;;;;;;;12.95;9.18;;;25.50;99.90;;;;;;5090415;28;20024;-68
2021/11/24 00:10:57;;;;;;;13.07;9.70;;;25.40;99.90;;;;;;5071762;28;20371;-68
2021/11/24 00:13:24;;;;;;;11.38;9.20;;;25.50;99.90;;;;;;5082209;28;20016;-69
2021/11/24 00:15:52;;;;;;;13.65;12.13;;;25.50;99.90;;;;;;5091575;28;20021;-69
2021/11/24 00:18:19;;;;;;;14.05;10.45;;;25.70;99.90;;;;;;5091611;28;20019;-68
2021/11/24 00:20:46;;;;;;;17.73;12.20;;;26.20;99.90;;;;;;5089544;28;20036;-69
2021/11/24 00:23:14;;;;;;;14.05;11.38;;;26.90;99.90;;;;;;5089253;28;20016;-69
2021/11/24 00:25:41;;;;;;;13.70;10.10;;;27.60;99.90;;;;;;5087872;28;20115;-68
2021/11/24 00:28:09;;;;;;;10.45;8.55;;;27.90;99.90;;;;;;5091064;28;20039;-68
2021/11/24 00:30:36;;;;;;;10.90;9.23;;;28.20;99.90;;;;;;5087767;28;20035;-69
2021/11/24 00:33:04;;;;;;;11.10;8.60;;;28.30;99.90;;;;;;5092036;28;20443;-68
2021/11/24 00:35:31;;;;;;;9.40;8.38;;;28.00;99.90;;;;;;5086111;28;20286;-69
2021/11/24 00:37:58;;;;;;;8.85;7.95;;;28.10;99.90;;;;;;5087038;28;20020;-69
2021/11/24 00:40:25;;;;;;;10.98;9.00;;;28.30;99.90;;;;;;5089159;28;20058;-68
2021/11/24 00:42:52;;;;;;;10.70;8.13;;;28.50;99.90;;;;;;5087819;28;20024;-69
2021/11/24 00:45:22;;;;;;;11.00;7.65;;;28.90;99.80;;;;;;5088950;28;20032;-68
2021/11/24 00:47:50;;;;;;;12.27;9.02;;;28.90;99.90;;;;;;5089847;28;20054;-69
2021/11/24 00:50:18;;;;;;;9.23;8.20;;;29.10;99.60;;;;;;5086793;28;20032;-70
2021/11/24 00:52:45;;;;;;;8.57;7.57;;;29.20;98.00;;;;;;5090247;28;20099;-69
2021/11/24 00:55:12;;;;;;;9.93;7.10;;;29.10;98.20;;;;;;5087596;28;20020;-69
2021/11/24 00:57:39;;;;;;;8.70;7.78;;;28.80;98.60;;;;;;5088578;28;20058;-69
2021/11/24 01:00:07;;;;;;;10.15;8.13;;;28.90;98.40;;;;;;5068297;28;20119;-69
2021/11/24 01:02:34;;;;;;;11.50;7.97;;;29.30;99.40;;;;;;5088446;28;20054;-69
2021/11/24 01:05:01;;;;;;;9.88;7.88;;;29.70;97.10;;;;;;5083025;28;20406;-69
2021/11/24 01:07:28;;;;;;;10.07;8.50;;;29.90;96.10;;;;;;5087569;28;20516;-69
2021/11/24 01:09:56;;;;;;;9.68;7.78;;;30.30;96.60;;;;;;5090998;28;20031;-69
2021/11/24 01:12:23;;;;;;;10.40;7.07;;;30.70;94.70;;;;;;5085737;28;20013;-69
2021/11/24 01:14:51;;;;;;;10.32;7.88;;;30.70;95.00;;;;;;5089815;28;20428;-68
2021/11/24 01:17:19;;;;;;;11.50;10.30;;;30.50;94.80;;;;;;5085423;28;20474;-69
2021/11/24 01:19:46;;;;;;;11.23;9.07;;;30.30;95.00;;;;;;5086597;28;20032;-68
2021/11/24 01:22:13;;;;;;;9.80;7.65;;;30.10;95.20;;;;;;5084501;28;20020;-69
2021/11/24 01:24:41;;;;;;;10.35;7.97;;;30.20;95.00;;;;;;5086875;28;20032;-69
2021/11/24 01:27:08;;;;;;;10.07;7.97;;;30.30;94.90;;;;;;5085063;28;20040;-70
2021/11/24 01:29:35;;;;;;;11.50;8.70;;;30.60;95.30;;;;;;5088384;28;20107;-71
2021/11/24 01:32:02;;;;;;;8.98;7.82;;;30.50;95.40;;;;;;5086530;28;20471;-68
2021/11/24 01:34:33;;;;;;;8.60;7.38;;;30.60;93.90;;;;;;5086521;28;20048;-69
2021/11/24 01:37:00;;;;;;;9.02;8.10;;;30.60;94.60;;;;;;5076378;28;20038;-69
2021/11/24 01:39:27;;;;;;;8.95;7.50;;;30.50;95.30;;;;;;5084059;28;20120;-70
2021/11/24 01:41:54;;;;;;;8.45;7.38;;;30.40;94.00;;;;;;5086808;28;20032;-69
2021/11/24 01:44:23;;;;;;;8.82;7.05;;;30.60;94.60;;;;;;5087515;28;20031;-68
2021/11/24 01:46:53;;;;;;;8.30;7.38;;;30.60;92.80;;;;;;5085878;28;20031;-69
2021/11/24 01:49:22;;;;;;;7.72;6.95;;;30.60;94.20;;;;;;5085743;28;20028;-68
2021/11/24 01:51:50;;;;;;;8.60;7.60;;;30.30;94.70;;;;;;5086528;28;20028;-69
2021/11/24 01:54:18;;;;;;;8.10;6.68;;;30.40;95.10;;;;;;5084622;28;20028;-69
2021/11/24 01:56:46;;;;;;;7.28;6.55;;;30.50;95.10;;;;;;5086703;28;20027;-68
2021/11/24 01:59:14;;;;;;;8.40;7.50;;;30.80;94.20;;;;;;5084878;28;20030;-69
2021/11/24 02:01:42;;;;;;;7.38;6.68;;;31.00;93.10;;;;;;5084854;28;20027;-70
2021/11/24 02:04:11;;;;;;;8.63;6.57;;;31.00;94.10;;;;;;5070165;28;20382;-69
2021/11/24 02:06:38;;;;;;;7.63;6.50;;;31.20;94.10;;;;;;5086779;28;20015;-69
2021/11/24 02:09:07;;;;;;;8.70;7.47;;;31.20;92.50;;;;;;5085943;28;20112;-69
2021/11/24 02:11:38;;;;;;;9.40;8.20;;;30.90;92.90;;;;;;5087189;28;20028;-69
2021/11/24 02:14:06;;;;;;;8.98;7.97;;;30.70;93.50;;;;;;5082304;28;20024;-69
2021/11/24 02:16:39;;;;;;;7.05;6.32;;;30.70;94.50;;;;;;5086211;28;20506;-69
2021/11/24 02:19:06;;;;;;;7.55;6.13;;;31.50;92.90;;;;;;5083367;28;20017;-68
2021/11/24 02:21:34;;;;;;;8.07;6.60;;;31.80;92.40;;;;;;5081064;28;20020;-72
2021/11/24 02:24:01;;;;;;;10.15;7.30;;;32.50;92.80;;;;;;5084538;28;20024;-68
2021/11/24 02:26:29;;;;;;;6.68;6.03;;;33.20;91.90;;;;;;5084853;28;20016;-69
2021/11/24 02:28:57;;;;;;;9.32;6.32;;;33.60;87.80;;;;;;5086297;28;20020;-70
2021/11/24 02:31:26;;;;;;;7.00;6.03;;;34.00;84.20;;;;;;5086332;28;20021;-69
2021/11/24 02:33:56;;;;;;;6.88;6.28;;;34.20;80.60;;;;;;5086670;28;20020;-70
2021/11/24 02:36:25;;;;;;;6.22;5.40;;;33.90;85.60;;;;;;5084884;28;20016;-69
2021/11/24 02:38:52;;;;;;;7.80;6.15;;;33.80;80.60;;;;;;5086790;28;20482;-70
2021/11/24 02:41:19;;;;;;;7.93;5.90;;;34.40;81.80;;;;;;5083342;28;20506;-69
2021/11/24 02:43:47;;;;;;;7.40;6.63;;;34.70;78.60;;;;;;5083648;28;20032;-69
2021/11/24 02:46:14;;;;;;;10.35;8.30;;;34.90;74.70;;;;;;5087444;28;20024;-71
2021/11/24 02:48:41;;;;;;;7.32;6.40;;;34.90;76.90;;;;;;5084396;28;20024;-69
2021/11/24 02:51:08;;;;;;;6.82;6.15;;;34.30;74.90;;;;;;5084369;28;20050;-72
2021/11/24 02:53:37;;;;;;;7.57;6.88;;;33.90;76.90;;;;;;5087043;28;20432;-69
2021/11/24 02:56:05;;;;;;;6.63;5.97;;;33.60;83.50;;;;;;5086036;28;20016;-71
2021/11/24 02:58:33;;;;;;;6.30;5.70;;;33.50;79.20;;;;;;5085414;28;20024;-70
2021/11/24 03:01:02;;;;;;;6.63;6.03;;;33.30;81.60;;;;;;5067074;28;20410;-70
2021/11/24 03:03:29;;;;;;;7.30;5.70;;;33.00;81.10;;;;;;5085087;28;20084;-72
2021/11/24 03:05:57;;;;;;;7.40;5.80;;;33.10;77.80;;;;;;5086229;28;20027;-70
2021/11/24 03:08:24;;;;;;;8.05;6.57;;;33.20;79.30;;;;;;5083607;28;20008;-72
2021/11/24 03:10:51;;;;;;;13.23;8.68;;;33.60;77.30;;;;;;5084411;28;20016;-71
2021/11/24 03:13:18;;;;;;;8.82;6.93;;;34.10;76.30;;;;;;5086221;28;20013;-72
2021/11/24 03:15:45;;;;;;;7.95;7.15;;;34.40;78.00;;;;;;5084250;28;20757;-71
2021/11/24 03:18:12;;;;;;;11.13;10.07;;;34.50;76.70;;;;;;5085851;28;20154;-69
2021/11/24 03:20:40;;;;;;;8.88;7.95;;;34.60;72.20;;;;;;5086611;28;20028;-69
2021/11/24 03:23:07;;;;;;;8.40;6.32;;;34.20;73.10;;;;;;5085990;28;20746;-70
2021/11/24 03:25:35;;;;;;;7.55;6.05;;;33.70;73.90;;;;;;5085825;28;20518;-71
2021/11/24 03:28:02;;;;;;;6.32;5.30;;;33.30;75.30;;;;;;5088089;28;20040;-70
2021/11/24 03:30:31;;;;;;;7.53;5.15;;;32.90;74.60;;;;;;5069111;28;20509;-70
2021/11/24 03:33:01;;;;;;;6.65;5.47;;;32.40;77.90;;;;;;5089113;28;20016;-69
2021/11/24 03:35:28;;;;;;;6.65;5.55;;;32.50;79.30;;;;;;5088009;28;20023;-71
2021/11/24 03:37:56;;;;;;;6.25;5.55;;;32.80;78.20;;;;;;5068614;28;20023;-69
2021/11/24 03:40:27;;;;;;;6.47;4.93;;;32.80;78.80;;;;;;5088559;28;20060;-69
2021/11/24 03:42:58;;;;;;;7.63;5.53;;;32.80;78.50;;;;;;5088678;28;20032;-70
2021/11/24 03:45:33;;;;;;;7.35;6.18;;;33.20;79.50;;;;;;5064457;28;20024;-69
2021/11/24 03:48:01;;;;;;;6.25;5.63;;;34.00;74.90;;;;;;5088318;28;20099;-70
2021/11/24 03:50:29;;;;;;;6.25;5.53;;;34.40;73.50;;;;;;5091262;28;20024;-71
2021/11/24 03:52:56;;;;;;;8.65;6.05;;;34.70;74.10;;;;;;5092237;28;20028;-69
2021/11/24 03:55:23;;;;;;;6.68;5.38;;;34.20;72.40;;;;;;5092369;28;20016;-71
2021/11/24 03:57:51;;;;;;;8.32;7.53;;;34.30;69.40;;;;;;5092300;28;20085;-70
2021/11/24 04:00:22;;;;;;;7.60;6.68;;;34.90;72.60;;;;;;5091906;28;20020;-69
2021/11/24 04:02:50;;;;;;;5.90;5.30;;;34.90;68.20;;;;;;5092212;28;20080;-71
2021/11/24 04:05:18;;;;;;;6.60;5.93;;;35.30;69.20;;;;;;5091847;28;20115;-72
2021/11/24 04:07:45;;;;;;;6.28;5.68;;;35.20;69.90;;;;;;4386263;28;10000733;-71
2021/11/24 04:10:13;;;;;;;6.13;5.03;;;35.20;64.90;;;;;;5088704;28;20031;-71
2021/11/24 04:12:44;;;;;;;7.13;6.43;;;34.90;68.90;;;;;;5087047;28;20101;-71
2021/11/24 04:15:14;;;;;;;7.22;5.43;;;35.00;70.40;;;;;;5086673;28;20027;-73
2021/11/24 04:17:42;;;;;;;8.70;5.45;;;35.00;68.40;;;;;;5086862;28;20501;-71
2021/11/24 04:20:13;;;;;;;7.80;6.15;;;34.70;68.00;;;;;;5088120;28;20316;-68
2021/11/24 04:22:41;;;;;;;8.65;6.28;;;34.50;66.80;;;;;;5088077;28;20028;-71
2021/11/24 04:25:10;;;;;;;7.15;6.45;;;33.80;69.20;;;;;;5084904;28;20019;-70
2021/11/24 04:27:37;;;;;;;7.05;5.93;;;33.40;70.80;;;;;;5083739;28;20047;-70
2021/11/24 04:30:06;;;;;;;6.57;5.60;;;33.40;72.20;;;;;;5087217;28;20532;-67
2021/11/24 04:32:33;;;;;;;7.38;6.20;;;33.70;70.80;;;;;;5087209;28;20110;-68
2021/11/24 04:35:01;;;;;;;7.97;6.90;;;33.40;70.50;;;;;;5086126;28;20338;-71
2021/11/24 04:37:28;;;;;;;10.73;8.52;;;33.20;75.10;;;;;;5084537;28;20024;-70
2021/11/24 04:39:55;;;;;;;10.40;9.15;;;33.20;77.10;;;;;;5087057;28;20070;-70
2021/11/24 04:42:22;;;;;;;10.63;8.88;;;33.40;77.70;;;;;;5086157;28;20031;-68
2021/11/24 04:44:50;;;;;;;10.32;9.10;;;33.00;75.90;;;;;;5086726;28;20032;-71
2021/11/24 04:47:17;;;;;;;12.82;10.05;;;32.60;78.50;;;;;;5087094;28;20012;-68
2021/11/24 04:49:44;;;;;;;11.00;9.85;;;32.10;79.90;;;;;;5087184;28;20147;-67
2021/11/24 04:52:12;;;;;;;10.80;9.80;;;31.70;81.60;;;;;;5087634;28;20059;-68
2021/11/24 04:54:39;;;;;;;9.48;8.55;;;31.60;85.80;;;;;;5088276;28;20020;-70
2021/11/24 04:57:08;;;;;;;11.75;9.30;;;31.60;86.50;;;;;;5088126;28;20084;-68
2021/11/24 04:59:36;;;;;;;9.05;8.23;;;31.60;84.60;;;;;;5069805;28;20028;-71
2021/11/24 05:02:03;;;;;;;9.88;8.88;;;31.70;85.80;;;;;;5087583;28;20028;-71
2021/11/24 05:04:30;;;;;;;8.50;7.60;;;31.50;85.60;;;;;;5088004;28;20032;-67
2021/11/24 05:06:57;;;;;;;10.00;9.00;;;31.30;88.50;;;;;;5087315;28;20081;-70
2021/11/24 05:09:25;;;;;;;10.13;8.52;;;31.00;90.00;;;;;;5085640;28;20043;-69
2021/11/24 05:11:52;;;;;;;14.77;9.05;;;30.60;91.00;;;;;;5079929;28;20031;-69
2021/11/24 05:14:27;;;;;;;10.98;8.00;;;30.30;92.50;;;;;;5088262;28;20055;-70
2021/11/24 05:16:56;;;;;;;7.82;6.88;;;30.20;93.30;;;;;;5083217;28;20135;-71
2021/11/24 05:19:23;;;;;;;8.73;7.13;;;30.10;93.90;;;;;;5085266;28;20032;-69
2021/11/24 05:21:52;;;;;;;8.23;6.80;;;30.20;94.50;;;;;;5083017;28;20039;-71
2021/11/24 05:24:20;;;;;;;12.57;8.25;;;30.50;94.00;;;;;;5085287;28;20085;-72
2021/11/24 05:26:48;;;;;;;9.77;7.07;;;30.40;94.00;;;;;;5080550;28;20508;-70
2021/11/24 05:29:16;;;;;;;9.55;7.25;;;30.20;94.90;;;;;;5087487;28;20398;-70
2021/11/24 05:31:43;;;;;;;8.77;6.63;;;30.10;95.10;;;;;;5080107;28;20020;-69
2021/11/24 05:34:10;;;;;;;11.13;6.55;;;29.90;95.80;;;;;;5081453;28;20031;-72
2021/11/24 05:36:39;;;;;;;12.13;5.95;;;29.60;96.80;;;;;;5085197;28;20023;-68
2021/11/24 05:39:09;;;;;;;9.57;5.78;;;29.30;97.40;;;;;;5087884;28;20073;-71
2021/11/24 05:41:41;;;;;;;8.55;5.05;;;29.20;97.80;;;;;;5088107;28;20355;-70
2021/11/24 05:46:56;;;;;;;10.43;5.40;;;29.00;99.30;;;;;;5086159;28;19923;-68
2021/11/24 05:49:25;;;;;;;9.57;5.43;;;28.80;99.20;;;;;;5085679;28;20039;-69
2021/11/24 05:51:57;;;;;;;13.98;8.10;;;28.60;99.90;;;;;;5086302;28;20032;-67
2021/11/24 05:54:25;;;;;;;10.95;6.32;;;28.40;99.90;;;;;;5086909;28;20024;-68
2021/11/24 05:56:52;;;;;;;22.27;14.98;;;28.40;99.90;;;;;;5086451;28;20030;-68
2021/11/24 05:59:20;;;;;;;8.10;4.22;;;28.40;99.90;;;;;;5085561;28;20393;-68
2021/11/24 06:01:48;;;;;;;12.52;6.05;;;28.30;99.90;;;;;;5083903;28;20043;-69
2021/11/24 06:04:15;;;;;;;11.82;7.53;;;28.20;99.90;;;;;;5086496;28;20024;-68
2021/11/24 06:06:42;;;;;;;8.77;4.68;;;28.20;99.90;;;;;;5086677;28;20036;-68
2021/11/24 06:09:09;;;;;;;9.65;5.80;;;28.20;99.90;;;;;;5086334;28;20028;-67
2021/11/24 06:11:38;;;;;;;6.43;4.75;;;28.20;99.90;;;;;;5066260;28;20027;-68
2021/11/24 06:14:05;;;;;;;8.63;4.68;;;28.30;99.90;;;;;;5083898;28;21554;-72
2021/11/24 06:16:32;;;;;;;10.00;4.38;;;28.30;99.90;;;;;;5089276;28;20020;-67
2021/11/24 06:18:59;;;;;;;6.07;4.70;;;28.30;99.90;;;;;;5090586;28;20031;-67
2021/11/24 06:21:33;;;;;;;8.82;4.47;;;28.30;99.90;;;;;;5080533;28;20024;-68
2021/11/24 06:24:05;;;;;;;10.93;4.53;;;28.30;99.90;;;;;;5083879;28;20133;-69
2021/11/24 06:26:36;;;;;;;11.27;4.20;;;28.30;99.90;;;;;;5085263;28;20155;-69
2021/11/24 06:29:04;;;;;;;8.13;4.95;;;28.20;99.90;;;;;;5086267;28;20031;-67
2021/11/24 06:31:31;;;;;;;8.50;4.70;;;28.10;99.90;;;;;;5087170;28;20016;-68
2021/11/24 06:33:59;;;;;;;10.27;4.70;;;28.00;99.90;;;;;;5088316;28;20484;-68
2021/11/24 06:36:26;;;;;;;10.05;4.07;;;27.80;99.90;;;;;;5081601;28;20021;-67
2021/11/24 06:38:55;;;;;;;7.75;3.83;;;27.70;99.90;;;;;;5081104;28;20028;-67
2021/11/24 06:41:23;;;;;;;8.55;3.72;;;27.50;99.90;;;;;;5085553;28;20013;-69
2021/11/24 06:43:50;;;;;;;7.15;4.50;;;27.50;99.90;;;;;;5064587;28;20114;-69
2021/11/24 06:46:17;;;;;;;10.88;6.20;;;27.30;99.90;;;;;;5084208;28;20028;-66
2021/11/24 06:48:44;;;;;;;11.95;4.80;;;27.20;99.90;;;;;;5081092;28;20153;-66
2021/11/24 06:51:11;;;;;;;9.68;4.28;;;27.10;99.90;;;;;;5083489;28;20027;-66
2021/11/24 06:53:38;;;;;;;10.68;3.83;;;27.00;99.90;;;;;;5096771;28;20111;-67
2021/11/24 06:56:06;;;;;;;9.93;4.47;;;26.90;99.90;;;;;;5083515;28;20059;-67
2021/11/24 06:58:33;;;;;;;7.93;4.22;;;26.70;99.90;;;;;;5082930;28;20423;-66
2021/11/24 07:01:02;;;;;;;9.73;4.53;;;26.50;99.90;;;;;;5084449;28;20043;-67
2021/11/24 07:03:29;;;;;;;8.88;4.35;;;26.50;99.90;;;;;;5082446;28;20475;-67
2021/11/24 07:05:57;;;;;;;11.68;4.07;;;26.40;99.90;;;;;;5083697;28;20028;-67
2021/11/24 07:08:24;;;;;;;11.48;3.83;;;26.40;99.90;;;;;;5084685;28;20024;-67
2021/11/24 07:10:51;;;;;;;9.85;3.88;;;26.10;99.90;;;;;;5085470;28;20039;-68
2021/11/24 07:13:18;;;;;;;9.32;3.78;;;26.00;99.90;;;;;;5084967;28;20020;-67
2021/11/24 07:15:46;;;;;;;10.23;4.10;;;25.90;99.90;;;;;;5082485;28;20124;-67
2021/11/24 07:18:13;;;;;;;10.48;3.78;;;25.80;99.90;;;;;;5085673;28;20691;-67
2021/11/24 07:20:40;;;;;;;8.57;3.72;;;25.80;99.90;;;;;;5086530;28;20470;-68
2021/11/24 07:23:07;;;;;;;8.77;3.40;;;25.60;99.90;;;;;;5089216;28;20442;-69
2021/11/24 07:25:35;;;;;;;11.35;3.75;;;25.60;99.90;;;;;;5089226;28;20402;-68
2021/11/24 07:28:02;;;;;;;9.75;3.70;;;25.50;99.90;;;;;;5090004;28;20036;-67
2021/11/24 07:30:30;;;;;;;9.38;3.72;;;25.30;99.90;;;;;;5088133;28;20432;-71
2021/11/24 07:32:57;;;;;;;10.23;3.45;;;25.30;99.90;;;;;;5081984;28;20089;-69
2021/11/24 07:35:24;;;;;;;13.75;4.18;;;25.30;99.90;;;;;;5085199;28;20448;-67
2021/11/24 07:37:51;;;;;;;6.38;2.78;;;25.20;99.90;;;;;;5086468;28;20035;-67
2021/11/24 07:40:21;;;;;;;10.77;3.70;;;25.20;99.90;;;;;;5089000;28;20028;-68
2021/11/24 07:42:50;;;;;;;9.60;3.28;;;25.20;99.90;;;;;;5088056;28;20028;-67
2021/11/24 07:45:18;;;;;;;7.57;2.85;;;25.10;99.90;;;;;;5089530;28;20024;-68
2021/11/24 07:47:45;;;;;;;7.13;3.00;;;25.00;99.90;;;;;;5088587;28;20121;-69
2021/11/24 07:50:12;;;;;;;8.35;2.92;;;24.90;99.90;;;;;;5088267;28;20024;-68
2021/11/24 07:52:39;;;;;;;12.20;3.40;;;24.80;99.90;;;;;;5088305;28;20074;-69
2021/11/24 07:55:07;;;;;;;8.52;3.72;;;24.70;99.90;;;;;;5087982;28;20417;-70
2021/11/24 07:57:34;;;;;;;14.02;3.58;;;24.60;99.90;;;;;;5087962;28;20089;-70
2021/11/24 08:00:02;;;;;;;11.50;3.75;;;24.60;99.90;;;;;;5088165;28;20035;-69
2021/11/24 08:02:29;;;;;;;11.13;2.97;;;24.60;99.90;;;;;;5087253;28;20024;-67
2021/11/24 08:04:56;;;;;;;9.88;2.95;;;24.60;99.90;;;;;;5087434;28;20107;-71
2021/11/24 08:07:23;;;;;;;9.38;3.58;;;24.50;99.90;;;;;;5086608;28;20410;-68
2021/11/24 08:09:51;;;;;;;14.13;3.65;;;24.50;99.90;;;;;;5084862;28;20043;-68
2021/11/24 08:12:18;;;;;;;11.68;3.78;;;24.40;99.90;;;;;;5085167;28;20032;-68
2021/11/24 08:14:45;;;;;;;8.88;3.20;;;24.50;99.90;;;;;;5083355;28;20253;-70
2021/11/24 08:17:12;;;;;;;9.10;3.65;;;24.40;99.90;;;;;;5083886;28;20028;-69
2021/11/24 08:19:40;;;;;;;9.95;3.58;;;24.40;99.90;;;;;;5085609;28;20177;-70
2021/11/24 08:22:07;;;;;;;11.73;3.40;;;24.40;99.90;;;;;;5085970;28;20061;-67
2021/11/24 08:24:34;;;;;;;13.57;3.47;;;24.30;99.90;;;;;;5086548;28;20114;-70
2021/11/24 08:27:02;;;;;;;11.75;3.67;;;24.20;99.90;;;;;;5080633;28;20142;-68
2021/11/24 08:29:30;;;;;;;10.30;4.15;;;24.20;99.90;;;;;;5062172;28;20028;-69
2021/11/24 08:31:57;;;;;;;16.80;5.18;;;24.10;99.90;;;;;;5064286;28;20024;-71
2021/11/24 08:34:25;;;;;;;13.27;4.28;;;24.00;99.90;;;;;;5066518;28;20031;-69
2021/11/24 08:36:52;;;;;;;12.95;4.65;;;23.90;99.90;;;;;;5059022;28;20024;-68
2021/11/24 08:39:20;;;;;;;15.40;4.38;;;23.70;99.90;;;;;;5066580;28;20029;-70
2021/11/24 08:41:48;;;;;;;11.80;4.15;;;23.60;99.90;;;;;;5058643;28;20469;-70
2021/11/24 08:44:15;;;;;;;9.25;4.10;;;23.40;99.90;;;;;;5066329;28;20031;-70
2021/11/24 08:46:42;;;;;;;14.60;4.45;;;23.30;99.90;;;;;;5060263;28;20036;-71
2021/11/24 08:49:09;;;;;;;13.35;4.53;;;23.30;99.90;;;;;;5037555;28;20059;-69
2021/11/24 08:51:38;;;;;;;10.90;4.63;;;23.30;99.90;;;;;;5060689;28;20063;-68
2021/11/24 08:54:09;;;;;;;12.70;4.75;;;23.20;99.90;;;;;;5063289;28;20032;-70
2021/11/24 08:56:37;;;;;;;12.07;4.05;;;23.10;99.90;;;;;;5060216;28;20564;-68
2021/11/24 08:59:06;;;;;;;29.48;20.00;;;23.10;99.90;;;;;;5064590;28;20118;-68
2021/11/24 09:01:35;;;;;;;16.40;7.38;;;23.00;99.90;;;;;;5065520;28;20024;-69
2021/11/24 09:04:03;;;;;;;17.85;6.75;;;23.00;99.90;;;;;;5065493;28;20091;-69
2021/11/24 09:06:31;;;;;;;19.00;10.23;;;22.90;99.90;;;;;;5064847;28;20032;-68
2021/11/24 09:08:58;;;;;;;16.17;7.32;;;22.80;99.90;;;;;;5063798;28;20032;-71
2021/11/24 09:11:25;;;;;;;12.15;5.10;;;22.70;99.90;;;;;;5064061;28;20026;-72
2021/11/24 09:13:52;;;;;;;11.77;5.25;;;22.70;99.90;;;;;;5063688;28;20537;-70
2021/11/24 09:16:19;;;;;;;14.70;5.30;;;22.70;99.90;;;;;;5064752;28;20105;-72
2021/11/24 09:18:47;;;;;;;11.20;4.82;;;22.60;99.90;;;;;;5054852;28;20093;-67
2021/11/24 09:21:14;;;;;;;13.30;5.75;;;22.60;99.90;;;;;;5064114;28;20027;-70
2021/11/24 09:23:44;;;;;;;9.15;5.13;;;22.60;99.90;;;;;;5063333;28;20086;-72
2021/11/24 09:28:56;;;;;;;11.57;4.40;;;22.40;99.90;;;;;;5079155;28;20860;-70
2021/11/24 09:31:23;;;;;;;14.23;5.57;;;22.40;99.90;;;;;;5081273;28;20159;-67
2021/11/24 09:33:51;;;;;;;13.13;5.60;;;22.40;99.90;;;;;;5084101;28;20692;-66
2021/11/24 09:36:18;;;;;;;12.25;5.45;;;22.50;99.90;;;;;;5082778;28;20511;-67
2021/11/24 09:38:45;;;;;;;9.50;5.18;;;22.50;99.90;;;;;;5078840;28;20028;-67
2021/11/24 09:41:13;;;;;;;14.20;5.47;;;22.50;99.90;;;;;;5083241;28;20035;-67
2021/11/24 09:43:47;;;;;;;13.13;6.35;;;22.50;99.90;;;;;;5083843;28;20028;-67
2021/11/24 09:46:17;;;;;;;11.90;5.30;;;22.60;99.90;;;;;;5084519;28;20759;-66
2021/11/24 09:48:45;;;;;;;12.10;4.70;;;22.60;99.90;;;;;;5079875;28;20016;-70
2021/11/24 09:51:14;;;;;;;12.27;5.40;;;22.50;99.90;;;;;;5085546;28;20070;-69
2021/11/24 09:53:44;;;;;;;9.88;5.50;;;22.40;99.90;;;;;;5085204;28;20035;-69
2021/11/24 09:56:12;;;;;;;11.60;5.60;;;22.40;99.90;;;;;;5085297;28;20024;-67
2021/11/24 09:58:39;;;;;;;11.50;5.20;;;22.40;99.90;;;;;;5077741;28;20016;-66
2021/11/24 10:01:07;;;;;;;14.25;6.40;;;22.30;99.90;;;;;;5084036;28;20684;-73
2021/11/24 10:03:34;;;;;;;17.80;5.78;;;22.30;99.90;;;;;;5084217;28;20035;-68
2021/11/24 10:06:01;;;;;;;15.00;5.95;;;22.30;99.90;;;;;;5074720;28;20023;-67
2021/11/24 10:08:32;;;;;;;10.95;5.68;;;22.30;99.90;;;;;;5084534;28;20103;-69
2021/11/24 10:11:00;;;;;;;13.32;6.20;;;22.30;99.90;;;;;;5084016;28;20020;-68
2021/11/24 10:13:28;;;;;;;16.73;6.57;;;22.20;99.90;;;;;;5084654;28;20027;-67
2021/11/24 10:15:59;;;;;;;12.23;6.43;;;22.20;99.90;;;;;;5084133;28;20054;-67
2021/11/24 10:18:35;;;;;;;17.00;6.05;;;22.20;99.90;;;;;;5080724;28;20028;-65
2021/11/24 10:21:20;;;;;;;12.82;6.22;;;22.20;99.90;;;;;;5083435;28;20024;-67
2021/11/24 10:23:49;;;;;;;14.18;6.30;;;22.20;99.90;;;;;;5084226;28;20028;-67
2021/11/24 10:26:31;;;;;;;15.30;7.35;;;22.20;99.90;;;;;;5093295;22;20043;-67
2021/11/24 10:28:59;;;;;;;11.93;6.60;;;22.30;99.90;;;;;;5043084;28;20387;-64
2021/11/24 10:31:33;;;;;;;15.80;6.72;;;22.30;99.90;;;;;;5050217;28;20388;-67
2021/11/24 10:34:11;;;;;;;13.35;6.88;;;22.20;99.90;;;;;;5042553;28;20033;-64
2021/11/24 10:36:50;;;;;;;15.02;7.70;;;22.10;99.90;;;;;;5050598;28;20020;-66
2021/11/24 10:39:18;;;;;;;15.00;7.82;;;22.00;99.90;;;;;;5051402;28;20032;-65
2021/11/24 10:41:45;;;;;;;14.30;7.65;;;22.00;99.90;;;;;;5050440;28;20043;-68
2021/11/24 10:44:28;;;;;;;16.70;9.15;;;21.90;99.90;;;;;;5053768;28;20024;-70
2021/11/24 10:46:57;;;;;;;13.32;7.72;;;21.90;99.90;;;;;;5058176;28;21173;-69
2021/11/24 10:49:37;;;;;;;11.07;8.15;;;21.80;99.90;;;;;;5054152;28;20513;-70
2021/11/24 10:52:24;;;;;;;12.05;7.95;;;21.80;99.90;;;;;;5045969;28;20365;-70
2021/11/24 10:55:11;;;;;;;14.60;10.10;;;21.70;99.90;;;;;;5057013;28;20032;-70
2021/11/24 10:57:59;;;;;;;13.57;8.93;;;21.80;99.90;;;;;;5048845;28;20025;-71
2021/11/24 11:00:33;;;;;;;14.52;8.63;;;21.80;99.90;;;;;;5057108;28;20110;-69
2021/11/24 11:03:00;;;;;;;13.65;8.90;;;21.80;99.90;;;;;;5057699;28;20047;-68
2021/11/24 11:05:29;;;;;;;17.88;10.73;;;21.80;99.90;;;;;;5054349;28;20028;-69
2021/11/24 11:08:06;;;;;;;15.15;10.35;;;21.70;99.90;;;;;;5056708;28;20111;-70
2021/11/24 11:10:45;;;;;;;23.27;12.38;;;21.80;99.90;;;;;;5056513;28;20105;-70
2021/11/24 11:13:17;;;;;;;17.20;10.73;;;21.80;99.90;;;;;;5055205;28;20491;-68
2021/11/24 11:15:53;;;;;;;17.25;10.27;;;21.70;99.90;;;;;;5054210;28;20029;-70
2021/11/24 11:18:29;;;;;;;17.15;12.23;;;21.70;99.90;;;;;;5053324;28;20387;-68
2021/11/24 11:21:07;;;;;;;12.65;10.30;;;21.60;99.90;;;;;;5055375;28;20037;-68
2021/11/24 11:23:36;;;;;;;15.68;10.80;;;21.70;99.90;;;;;;5055607;28;20060;-68
2021/11/24 11:26:08;;;;;;;19.17;10.50;;;21.70;99.90;;;;;;5060506;28;20024;-68
2021/11/24 11:28:42;;;;;;;14.55;9.60;;;21.70;99.90;;;;;;5055644;28;20085;-68
2021/11/24 11:31:11;;;;;;;12.82;8.32;;;21.70;99.90;;;;;;5060684;28;20111;-70
2021/11/24 11:33:47;;;;;;;14.95;9.93;;;21.60;99.90;;;;;;5059761;28;20021;-70
2021/11/24 11:36:15;;;;;;;15.43;9.70;;;21.70;99.90;;;;;;5056358;28;20471;-71
2021/11/24 11:38:48;;;;;;;14.32;9.38;;;21.70;99.90;;;;;;5061179;28;20488;-68
2021/11/24 11:41:23;;;;;;;16.13;9.63;;;21.70;99.90;;;;;;5065283;28;20048;-72
2021/11/24 11:43:52;;;;;;;14.85;9.10;;;21.80;99.90;;;;;;5059270;28;20029;-71
2021/11/24 11:46:23;;;;;;;16.77;9.77;;;21.70;99.90;;;;;;5057685;28;20107;-71
2021/11/24 11:48:52;;;;;;;15.07;9.55;;;21.70;99.90;;;;;;5064403;28;20025;-68
2021/11/24 11:51:33;;;;;;;14.32;9.00;;;21.70;99.90;;;;;;5058301;28;20657;-67
2021/11/24 11:54:01;;;;;;;18.83;9.65;;;21.80;99.90;;;;;;5064388;28;20021;-68
2021/11/24 11:56:30;;;;;;;15.63;8.50;;;21.80;99.90;;;;;;5069127;28;20490;-68
2021/11/24 11:59:09;;;;;;;21.60;10.25;;;21.80;99.90;;;;;;5055976;28;20029;-68
2021/11/24 12:01:42;;;;;;;18.38;9.73;;;21.80;99.90;;;;;;5051926;28;20021;-70
2021/11/24 12:04:19;;;;;;;20.23;11.38;;;21.80;99.90;;;;;;5065497;28;20032;-70
2021/11/24 12:06:50;;;;;;;17.75;9.43;;;21.80;99.90;;;;;;5046126;28;20029;-68
2021/11/24 12:09:35;;;;;;;18.58;10.32;;;21.70;99.90;;;;;;5038296;28;20094;-72
2021/11/24 12:12:06;;;;;;;18.02;10.23;;;21.70;99.90;;;;;;5052211;28;20025;-68
2021/11/24 12:15:03;;;;;;;15.88;9.40;;;21.70;99.90;;;;;;5050536;28;20425;-72
2021/11/24 12:17:35;;;;;;;15.15;10.65;;;21.60;99.90;;;;;;5063740;28;20020;-69
2021/11/24 12:20:30;;;;;;;24.43;11.90;;;21.50;99.90;;;;;;5060768;28;20024;-70
2021/11/24 12:23:01;;;;;;;20.85;11.05;;;21.60;99.90;;;;;;5062475;28;20115;-69
2021/11/24 12:25:28;;;;;;;15.07;11.23;;;21.60;99.90;;;;;;5054021;28;20174;-70
2021/11/24 12:28:04;;;;;;;14.18;11.23;;;21.60;99.90;;;;;;5039874;28;20423;-68
2021/11/24 12:30:39;;;;;;;15.80;11.45;;;21.50;99.90;;;;;;5060304;28;20108;-70
2021/11/24 12:33:12;;;;;;;17.67;11.25;;;21.40;99.90;;;;;;5062979;28;20025;-68
2021/11/24 12:35:55;;;;;;;21.35;12.63;;;21.40;99.90;;;;;;5058620;28;20025;-68
2021/11/24 12:38:31;;;;;;;22.02;12.70;;;21.30;99.90;;;;;;5060643;28;20501;-68
2021/11/24 12:41:02;;;;;;;15.80;12.00;;;21.40;99.90;;;;;;5054620;28;20029;-67
2021/11/24 12:43:32;;;;;;;21.10;12.23;;;21.40;99.90;;;;;;5061570;28;20025;-70
2021/11/24 12:46:05;;;;;;;15.20;11.40;;;21.40;99.90;;;;;;5059396;28;20029;-68
2021/11/24 12:48:56;;;;;;;19.40;12.43;;;21.30;99.90;;;;;;5058775;28;20031;-68
2021/11/24 12:51:35;;;;;;;20.17;12.45;;;21.40;99.90;;;;;;5052916;28;20029;-68
2021/11/24 12:54:09;;;;;;;18.63;12.55;;;21.30;99.90;;;;;;5057584;28;20025;-69
2021/11/24 12:56:39;;;;;;;18.23;13.38;;;21.30;99.90;;;;;;5053955;28;20023;-68